LFPM 181700Z AUTO 24005KT CAVOK 24/19 Q1011

Notre flotte, composée de neuf avions de 65 à 285 CV

Liens externes